<?xml version="1.0" encoding="UTF-8" standalone="no" ?>
<gpx xmlns="http://www.topografix.com/GPX/1/1" xmlns:xsi="http://www.w3.org/2001/XMLSchema-instance" xsi:schemaLocation="http://www.topografix.com/GPX/1/1 http://www.topografix.com/GPX/1/1/gpx.xsd" version="1.1" creator="VisuGPX - https://www.visugpx.com">
  <metadata>
    <name>Les Chateliers-Châteaumur, Sèvremont</name>
  </metadata>
  <trk>
    <name><![CDATA[14181408-les chateliers- les chateliers]]></name>
    <extensions>
      <line xmlns="http://www.topografix.com/GPX/gpx_style/0/2">
        <color>0000FF</color>
        <width>4</width>
      </line>
    </extensions>
    <trkseg>
      <trkpt lat="46.84389" lon="-0.82999">
        <ele>156</ele>
        <time>2022-01-26T22:21:50Z</time>
      </trkpt>
      <trkpt lat="46.84389" lon="-0.83024">
        <ele>156</ele>
        <time>2022-01-26T22:22:04Z</time>
      </trkpt>
      <trkpt lat="46.84384" lon="-0.83047">
        <ele>158</ele>
        <time>2022-01-26T22:22:17Z</time>
      </trkpt>
      <trkpt lat="46.84379" lon="-0.83064">
        <ele>159</ele>
        <time>2022-01-26T22:22:27Z</time>
      </trkpt>
      <trkpt lat="46.84376" lon="-0.83092">
        <ele>160</ele>
        <time>2022-01-26T22:22:43Z</time>
      </trkpt>
      <trkpt lat="46.84374" lon="-0.83145">
        <ele>162</ele>
        <time>2022-01-26T22:23:12Z</time>
      </trkpt>
      <trkpt lat="46.84374" lon="-0.83186">
        <ele>163</ele>
        <time>2022-01-26T22:23:34Z</time>
      </trkpt>
      <trkpt lat="46.84374" lon="-0.8323">
        <ele>165</ele>
        <time>2022-01-26T22:23:58Z</time>
      </trkpt>
      <trkpt lat="46.84405" lon="-0.83234">
        <ele>159</ele>
        <time>2022-01-26T22:24:23Z</time>
      </trkpt>
      <trkpt lat="46.84431" lon="-0.83251">
        <ele>158</ele>
        <time>2022-01-26T22:24:46Z</time>
      </trkpt>
      <trkpt lat="46.84447" lon="-0.83274">
        <ele>160</ele>
        <time>2022-01-26T22:25:04Z</time>
      </trkpt>
      <trkpt lat="46.84456" lon="-0.83295">
        <ele>161</ele>
        <time>2022-01-26T22:25:17Z</time>
      </trkpt>
      <trkpt lat="46.84461" lon="-0.83328">
        <ele>161</ele>
        <time>2022-01-26T22:25:36Z</time>
      </trkpt>
      <trkpt lat="46.84495" lon="-0.83343">
        <ele>163</ele>
        <time>2022-01-26T22:26:04Z</time>
      </trkpt>
      <trkpt lat="46.84504" lon="-0.83379">
        <ele>163</ele>
        <time>2022-01-26T22:26:25Z</time>
      </trkpt>
      <trkpt lat="46.84507" lon="-0.83407">
        <ele>163</ele>
        <time>2022-01-26T22:26:41Z</time>
      </trkpt>
      <trkpt lat="46.84519" lon="-0.83426">
        <ele>164</ele>
        <time>2022-01-26T22:26:55Z</time>
      </trkpt>
      <trkpt lat="46.84548" lon="-0.83442">
        <ele>166</ele>
        <time>2022-01-26T22:27:20Z</time>
      </trkpt>
      <trkpt lat="46.84575" lon="-0.83423">
        <ele>169</ele>
        <time>2022-01-26T22:27:44Z</time>
      </trkpt>
      <trkpt lat="46.84585" lon="-0.8341">
        <ele>170</ele>
        <time>2022-01-26T22:27:55Z</time>
      </trkpt>
      <trkpt lat="46.84569" lon="-0.83376">
        <ele>170</ele>
        <time>2022-01-26T22:28:17Z</time>
      </trkpt>
      <trkpt lat="46.84558" lon="-0.83314">
        <ele>171</ele>
        <time>2022-01-26T22:28:52Z</time>
      </trkpt>
      <trkpt lat="46.84552" lon="-0.83285">
        <ele>171</ele>
        <time>2022-01-26T22:29:09Z</time>
      </trkpt>
      <trkpt lat="46.84546" lon="-0.83243">
        <ele>171</ele>
        <time>2022-01-26T22:29:32Z</time>
      </trkpt>
      <trkpt lat="46.84574" lon="-0.83246">
        <ele>175</ele>
        <time>2022-01-26T22:29:55Z</time>
      </trkpt>
      <trkpt lat="46.84582" lon="-0.83272">
        <ele>176</ele>
        <time>2022-01-26T22:30:10Z</time>
      </trkpt>
      <trkpt lat="46.84596" lon="-0.83287">
        <ele>175</ele>
        <time>2022-01-26T22:30:24Z</time>
      </trkpt>
      <trkpt lat="46.8461" lon="-0.83283">
        <ele>174</ele>
        <time>2022-01-26T22:30:36Z</time>
      </trkpt>
      <trkpt lat="46.84607" lon="-0.83266">
        <ele>174</ele>
        <time>2022-01-26T22:30:45Z</time>
      </trkpt>
      <trkpt lat="46.84603" lon="-0.83253">
        <ele>175</ele>
        <time>2022-01-26T22:30:53Z</time>
      </trkpt>
      <trkpt lat="46.84595" lon="-0.83248">
        <ele>176</ele>
        <time>2022-01-26T22:31:00Z</time>
      </trkpt>
      <trkpt lat="46.84584" lon="-0.83244">
        <ele>176</ele>
        <time>2022-01-26T22:31:09Z</time>
      </trkpt>
      <trkpt lat="46.84571" lon="-0.83232">
        <ele>174</ele>
        <time>2022-01-26T22:31:22Z</time>
      </trkpt>
      <trkpt lat="46.84547" lon="-0.83231">
        <ele>171</ele>
        <time>2022-01-26T22:31:41Z</time>
      </trkpt>
      <trkpt lat="46.8454" lon="-0.83186">
        <ele>167</ele>
        <time>2022-01-26T22:32:06Z</time>
      </trkpt>
      <trkpt lat="46.84528" lon="-0.83132">
        <ele>162</ele>
        <time>2022-01-26T22:32:37Z</time>
      </trkpt>
      <trkpt lat="46.84511" lon="-0.83091">
        <ele>158</ele>
        <time>2022-01-26T22:33:03Z</time>
      </trkpt>
      <trkpt lat="46.84548" lon="-0.83065">
        <ele>158</ele>
        <time>2022-01-26T22:33:36Z</time>
      </trkpt>
      <trkpt lat="46.84572" lon="-0.83045">
        <ele>157</ele>
        <time>2022-01-26T22:33:58Z</time>
      </trkpt>
      <trkpt lat="46.84597" lon="-0.83067">
        <ele>159</ele>
        <time>2022-01-26T22:34:22Z</time>
      </trkpt>
      <trkpt lat="46.84622" lon="-0.83095">
        <ele>160</ele>
        <time>2022-01-26T22:34:47Z</time>
      </trkpt>
      <trkpt lat="46.8465" lon="-0.83133">
        <ele>162</ele>
        <time>2022-01-26T22:35:18Z</time>
      </trkpt>
      <trkpt lat="46.84672" lon="-0.83166">
        <ele>164</ele>
        <time>2022-01-26T22:35:43Z</time>
      </trkpt>
      <trkpt lat="46.84696" lon="-0.83221">
        <ele>165</ele>
        <time>2022-01-26T22:36:19Z</time>
      </trkpt>
      <trkpt lat="46.84707" lon="-0.83256">
        <ele>165</ele>
        <time>2022-01-26T22:36:40Z</time>
      </trkpt>
      <trkpt lat="46.84718" lon="-0.83294">
        <ele>164</ele>
        <time>2022-01-26T22:37:02Z</time>
      </trkpt>
      <trkpt lat="46.84695" lon="-0.83313">
        <ele>166</ele>
        <time>2022-01-26T22:37:23Z</time>
      </trkpt>
      <trkpt lat="46.84679" lon="-0.83341">
        <ele>168</ele>
        <time>2022-01-26T22:37:43Z</time>
      </trkpt>
      <trkpt lat="46.8466" lon="-0.83363">
        <ele>169</ele>
        <time>2022-01-26T22:38:03Z</time>
      </trkpt>
      <trkpt lat="46.84638" lon="-0.83388">
        <ele>169</ele>
        <time>2022-01-26T22:38:25Z</time>
      </trkpt>
      <trkpt lat="46.84605" lon="-0.83405">
        <ele>170</ele>
        <time>2022-01-26T22:38:53Z</time>
      </trkpt>
      <trkpt lat="46.84582" lon="-0.83422">
        <ele>170</ele>
        <time>2022-01-26T22:39:14Z</time>
      </trkpt>
      <trkpt lat="46.84591" lon="-0.83449">
        <ele>169</ele>
        <time>2022-01-26T22:39:30Z</time>
      </trkpt>
      <trkpt lat="46.84601" lon="-0.83467">
        <ele>169</ele>
        <time>2022-01-26T22:39:43Z</time>
      </trkpt>
      <trkpt lat="46.84615" lon="-0.83519">
        <ele>168</ele>
        <time>2022-01-26T22:40:13Z</time>
      </trkpt>
      <trkpt lat="46.84619" lon="-0.83552">
        <ele>169</ele>
        <time>2022-01-26T22:40:32Z</time>
      </trkpt>
      <trkpt lat="46.84632" lon="-0.83578">
        <ele>170</ele>
        <time>2022-01-26T22:40:49Z</time>
      </trkpt>
      <trkpt lat="46.84654" lon="-0.83623">
        <ele>173</ele>
        <time>2022-01-26T22:41:20Z</time>
      </trkpt>
      <trkpt lat="46.84668" lon="-0.83662">
        <ele>176</ele>
        <time>2022-01-26T22:41:44Z</time>
      </trkpt>
      <trkpt lat="46.8469" lon="-0.83706">
        <ele>178</ele>
        <time>2022-01-26T22:42:14Z</time>
      </trkpt>
      <trkpt lat="46.84704" lon="-0.83746">
        <ele>180</ele>
        <time>2022-01-26T22:42:38Z</time>
      </trkpt>
      <trkpt lat="46.84721" lon="-0.83828">
        <ele>181</ele>
        <time>2022-01-26T22:43:25Z</time>
      </trkpt>
      <trkpt lat="46.84738" lon="-0.83886">
        <ele>181</ele>
        <time>2022-01-26T22:44:00Z</time>
      </trkpt>
      <trkpt lat="46.84755" lon="-0.83925">
        <ele>181</ele>
        <time>2022-01-26T22:44:25Z</time>
      </trkpt>
      <trkpt lat="46.8477" lon="-0.83962">
        <ele>182</ele>
        <time>2022-01-26T22:44:49Z</time>
      </trkpt>
      <trkpt lat="46.84782" lon="-0.83991">
        <ele>184</ele>
        <time>2022-01-26T22:45:07Z</time>
      </trkpt>
      <trkpt lat="46.84795" lon="-0.84027">
        <ele>184</ele>
        <time>2022-01-26T22:45:30Z</time>
      </trkpt>
      <trkpt lat="46.84806" lon="-0.84057">
        <ele>185</ele>
        <time>2022-01-26T22:45:48Z</time>
      </trkpt>
      <trkpt lat="46.84828" lon="-0.84096">
        <ele>186</ele>
        <time>2022-01-26T22:46:16Z</time>
      </trkpt>
      <trkpt lat="46.84861" lon="-0.84131">
        <ele>186</ele>
        <time>2022-01-26T22:46:48Z</time>
      </trkpt>
      <trkpt lat="46.84925" lon="-0.842">
        <ele>188</ele>
        <time>2022-01-26T22:47:52Z</time>
      </trkpt>
      <trkpt lat="46.84958" lon="-0.84226">
        <ele>189</ele>
        <time>2022-01-26T22:48:22Z</time>
      </trkpt>
      <trkpt lat="46.85035" lon="-0.84295">
        <ele>191</ele>
        <time>2022-01-26T22:49:34Z</time>
      </trkpt>
      <trkpt lat="46.85053" lon="-0.84307">
        <ele>191</ele>
        <time>2022-01-26T22:49:50Z</time>
      </trkpt>
      <trkpt lat="46.85073" lon="-0.84323">
        <ele>192</ele>
        <time>2022-01-26T22:50:09Z</time>
      </trkpt>
      <trkpt lat="46.8509" lon="-0.84344">
        <ele>192</ele>
        <time>2022-01-26T22:50:26Z</time>
      </trkpt>
      <trkpt lat="46.8512" lon="-0.84369">
        <ele>194</ele>
        <time>2022-01-26T22:50:54Z</time>
      </trkpt>
      <trkpt lat="46.85142" lon="-0.84389">
        <ele>195</ele>
        <time>2022-01-26T22:51:15Z</time>
      </trkpt>
      <trkpt lat="46.8516" lon="-0.84413">
        <ele>196</ele>
        <time>2022-01-26T22:51:34Z</time>
      </trkpt>
      <trkpt lat="46.85183" lon="-0.8444">
        <ele>196</ele>
        <time>2022-01-26T22:51:58Z</time>
      </trkpt>
      <trkpt lat="46.85209" lon="-0.84419">
        <ele>197</ele>
        <time>2022-01-26T22:52:22Z</time>
      </trkpt>
      <trkpt lat="46.85219" lon="-0.84383">
        <ele>198</ele>
        <time>2022-01-26T22:52:43Z</time>
      </trkpt>
      <trkpt lat="46.85228" lon="-0.84344">
        <ele>199</ele>
        <time>2022-01-26T22:53:05Z</time>
      </trkpt>
      <trkpt lat="46.85236" lon="-0.84305">
        <ele>200</ele>
        <time>2022-01-26T22:53:28Z</time>
      </trkpt>
      <trkpt lat="46.8524" lon="-0.84281">
        <ele>200</ele>
        <time>2022-01-26T22:53:41Z</time>
      </trkpt>
      <trkpt lat="46.85244" lon="-0.84249">
        <ele>200</ele>
        <time>2022-01-26T22:53:59Z</time>
      </trkpt>
      <trkpt lat="46.8525" lon="-0.84217">
        <ele>200</ele>
        <time>2022-01-26T22:54:17Z</time>
      </trkpt>
      <trkpt lat="46.85239" lon="-0.84209">
        <ele>199</ele>
        <time>2022-01-26T22:54:27Z</time>
      </trkpt>
      <trkpt lat="46.85228" lon="-0.84192">
        <ele>198</ele>
        <time>2022-01-26T22:54:40Z</time>
      </trkpt>
      <trkpt lat="46.85218" lon="-0.84175">
        <ele>197</ele>
        <time>2022-01-26T22:54:52Z</time>
      </trkpt>
      <trkpt lat="46.85211" lon="-0.84154">
        <ele>196</ele>
        <time>2022-01-26T22:55:05Z</time>
      </trkpt>
      <trkpt lat="46.85202" lon="-0.84135">
        <ele>195</ele>
        <time>2022-01-26T22:55:18Z</time>
      </trkpt>
      <trkpt lat="46.85192" lon="-0.8412">
        <ele>194</ele>
        <time>2022-01-26T22:55:29Z</time>
      </trkpt>
      <trkpt lat="46.85195" lon="-0.84088">
        <ele>194</ele>
        <time>2022-01-26T22:55:47Z</time>
      </trkpt>
      <trkpt lat="46.85196" lon="-0.84071">
        <ele>194</ele>
        <time>2022-01-26T22:55:56Z</time>
      </trkpt>
      <trkpt lat="46.85186" lon="-0.84053">
        <ele>193</ele>
        <time>2022-01-26T22:56:09Z</time>
      </trkpt>
      <trkpt lat="46.85176" lon="-0.84043">
        <ele>192</ele>
        <time>2022-01-26T22:56:19Z</time>
      </trkpt>
      <trkpt lat="46.85166" lon="-0.84032">
        <ele>190</ele>
        <time>2022-01-26T22:56:29Z</time>
      </trkpt>
      <trkpt lat="46.85163" lon="-0.84013">
        <ele>190</ele>
        <time>2022-01-26T22:56:39Z</time>
      </trkpt>
      <trkpt lat="46.85167" lon="-0.83988">
        <ele>189</ele>
        <time>2022-01-26T22:56:53Z</time>
      </trkpt>
      <trkpt lat="46.85179" lon="-0.83957">
        <ele>190</ele>
        <time>2022-01-26T22:57:13Z</time>
      </trkpt>
      <trkpt lat="46.85173" lon="-0.83927">
        <ele>187</ele>
        <time>2022-01-26T22:57:30Z</time>
      </trkpt>
      <trkpt lat="46.85168" lon="-0.83918">
        <ele>186</ele>
        <time>2022-01-26T22:57:36Z</time>
      </trkpt>
      <trkpt lat="46.85163" lon="-0.83905">
        <ele>185</ele>
        <time>2022-01-26T22:57:44Z</time>
      </trkpt>
      <trkpt lat="46.8516" lon="-0.83883">
        <ele>184</ele>
        <time>2022-01-26T22:57:57Z</time>
      </trkpt>
      <trkpt lat="46.8517" lon="-0.83866">
        <ele>185</ele>
        <time>2022-01-26T22:58:09Z</time>
      </trkpt>
      <trkpt lat="46.85173" lon="-0.83841">
        <ele>184</ele>
        <time>2022-01-26T22:58:23Z</time>
      </trkpt>
      <trkpt lat="46.85166" lon="-0.83819">
        <ele>183</ele>
        <time>2022-01-26T22:58:36Z</time>
      </trkpt>
      <trkpt lat="46.85166" lon="-0.83748">
        <ele>181</ele>
        <time>2022-01-26T22:59:15Z</time>
      </trkpt>
      <trkpt lat="46.85148" lon="-0.83726">
        <ele>179</ele>
        <time>2022-01-26T22:59:34Z</time>
      </trkpt>
      <trkpt lat="46.85128" lon="-0.83704">
        <ele>177</ele>
        <time>2022-01-26T22:59:54Z</time>
      </trkpt>
      <trkpt lat="46.85104" lon="-0.83686">
        <ele>175</ele>
        <time>2022-01-26T23:00:16Z</time>
      </trkpt>
      <trkpt lat="46.85085" lon="-0.83661">
        <ele>174</ele>
        <time>2022-01-26T23:00:36Z</time>
      </trkpt>
      <trkpt lat="46.85071" lon="-0.83641">
        <ele>174</ele>
        <time>2022-01-26T23:00:52Z</time>
      </trkpt>
      <trkpt lat="46.85058" lon="-0.83611">
        <ele>175</ele>
        <time>2022-01-26T23:01:11Z</time>
      </trkpt>
      <trkpt lat="46.85039" lon="-0.83588">
        <ele>174</ele>
        <time>2022-01-26T23:01:31Z</time>
      </trkpt>
      <trkpt lat="46.85021" lon="-0.83562">
        <ele>173</ele>
        <time>2022-01-26T23:01:51Z</time>
      </trkpt>
      <trkpt lat="46.84999" lon="-0.83541">
        <ele>171</ele>
        <time>2022-01-26T23:02:12Z</time>
      </trkpt>
      <trkpt lat="46.84968" lon="-0.83517">
        <ele>169</ele>
        <time>2022-01-26T23:02:40Z</time>
      </trkpt>
      <trkpt lat="46.84946" lon="-0.83492">
        <ele>168</ele>
        <time>2022-01-26T23:03:03Z</time>
      </trkpt>
      <trkpt lat="46.8493" lon="-0.83462">
        <ele>167</ele>
        <time>2022-01-26T23:03:23Z</time>
      </trkpt>
      <trkpt lat="46.84924" lon="-0.83417">
        <ele>168</ele>
        <time>2022-01-26T23:03:48Z</time>
      </trkpt>
      <trkpt lat="46.84905" lon="-0.83363">
        <ele>168</ele>
        <time>2022-01-26T23:04:22Z</time>
      </trkpt>
      <trkpt lat="46.84885" lon="-0.8333">
        <ele>167</ele>
        <time>2022-01-26T23:04:46Z</time>
      </trkpt>
      <trkpt lat="46.84873" lon="-0.83314">
        <ele>166</ele>
        <time>2022-01-26T23:04:59Z</time>
      </trkpt>
      <trkpt lat="46.84855" lon="-0.83279">
        <ele>165</ele>
        <time>2022-01-26T23:05:23Z</time>
      </trkpt>
      <trkpt lat="46.84845" lon="-0.83264">
        <ele>163</ele>
        <time>2022-01-26T23:05:34Z</time>
      </trkpt>
      <trkpt lat="46.84828" lon="-0.83228">
        <ele>160</ele>
        <time>2022-01-26T23:05:58Z</time>
      </trkpt>
      <trkpt lat="46.84835" lon="-0.83195">
        <ele>159</ele>
        <time>2022-01-26T23:06:17Z</time>
      </trkpt>
      <trkpt lat="46.8484" lon="-0.83148">
        <ele>159</ele>
        <time>2022-01-26T23:06:43Z</time>
      </trkpt>
      <trkpt lat="46.8486" lon="-0.83121">
        <ele>163</ele>
        <time>2022-01-26T23:07:05Z</time>
      </trkpt>
      <trkpt lat="46.84883" lon="-0.83087">
        <ele>165</ele>
        <time>2022-01-26T23:07:31Z</time>
      </trkpt>
      <trkpt lat="46.8491" lon="-0.83056">
        <ele>167</ele>
        <time>2022-01-26T23:07:59Z</time>
      </trkpt>
      <trkpt lat="46.84943" lon="-0.83">
        <ele>167</ele>
        <time>2022-01-26T23:08:39Z</time>
      </trkpt>
      <trkpt lat="46.84963" lon="-0.82975">
        <ele>168</ele>
        <time>2022-01-26T23:09:00Z</time>
      </trkpt>
      <trkpt lat="46.84981" lon="-0.82947">
        <ele>168</ele>
        <time>2022-01-26T23:09:21Z</time>
      </trkpt>
      <trkpt lat="46.84996" lon="-0.82916">
        <ele>168</ele>
        <time>2022-01-26T23:09:42Z</time>
      </trkpt>
      <trkpt lat="46.85009" lon="-0.82897">
        <ele>169</ele>
        <time>2022-01-26T23:09:57Z</time>
      </trkpt>
      <trkpt lat="46.85016" lon="-0.82872">
        <ele>169</ele>
        <time>2022-01-26T23:10:12Z</time>
      </trkpt>
      <trkpt lat="46.85023" lon="-0.82822">
        <ele>168</ele>
        <time>2022-01-26T23:10:40Z</time>
      </trkpt>
      <trkpt lat="46.8495" lon="-0.82799">
        <ele>159</ele>
        <time>2022-01-26T23:11:39Z</time>
      </trkpt>
      <trkpt lat="46.84972" lon="-0.8272">
        <ele>157</ele>
        <time>2022-01-26T23:12:26Z</time>
      </trkpt>
      <trkpt lat="46.85009" lon="-0.82596">
        <ele>155</ele>
        <time>2022-01-26T23:13:40Z</time>
      </trkpt>
      <trkpt lat="46.84972" lon="-0.82581">
        <ele>154</ele>
        <time>2022-01-26T23:14:11Z</time>
      </trkpt>
      <trkpt lat="46.85005" lon="-0.82529">
        <ele>154</ele>
        <time>2022-01-26T23:14:50Z</time>
      </trkpt>
      <trkpt lat="46.85021" lon="-0.825">
        <ele>154</ele>
        <time>2022-01-26T23:15:10Z</time>
      </trkpt>
      <trkpt lat="46.85039" lon="-0.82485">
        <ele>154</ele>
        <time>2022-01-26T23:15:27Z</time>
      </trkpt>
      <trkpt lat="46.85052" lon="-0.82453">
        <ele>154</ele>
        <time>2022-01-26T23:15:47Z</time>
      </trkpt>
      <trkpt lat="46.85058" lon="-0.82422">
        <ele>154</ele>
        <time>2022-01-26T23:16:05Z</time>
      </trkpt>
      <trkpt lat="46.85115" lon="-0.82335">
        <ele>152</ele>
        <time>2022-01-26T23:17:11Z</time>
      </trkpt>
      <trkpt lat="46.8515" lon="-0.82265">
        <ele>151</ele>
        <time>2022-01-26T23:17:58Z</time>
      </trkpt>
      <trkpt lat="46.85183" lon="-0.82203">
        <ele>152</ele>
        <time>2022-01-26T23:18:41Z</time>
      </trkpt>
      <trkpt lat="46.85208" lon="-0.82162">
        <ele>152</ele>
        <time>2022-01-26T23:19:11Z</time>
      </trkpt>
      <trkpt lat="46.85221" lon="-0.8213">
        <ele>152</ele>
        <time>2022-01-26T23:19:32Z</time>
      </trkpt>
      <trkpt lat="46.85246" lon="-0.82079">
        <ele>152</ele>
        <time>2022-01-26T23:20:06Z</time>
      </trkpt>
      <trkpt lat="46.8526" lon="-0.8205">
        <ele>154</ele>
        <time>2022-01-26T23:20:25Z</time>
      </trkpt>
      <trkpt lat="46.85313" lon="-0.82016">
        <ele>161</ele>
        <time>2022-01-26T23:21:12Z</time>
      </trkpt>
      <trkpt lat="46.85333" lon="-0.82002">
        <ele>164</ele>
        <time>2022-01-26T23:21:30Z</time>
      </trkpt>
      <trkpt lat="46.85348" lon="-0.81987">
        <ele>168</ele>
        <time>2022-01-26T23:21:44Z</time>
      </trkpt>
      <trkpt lat="46.85367" lon="-0.81996">
        <ele>173</ele>
        <time>2022-01-26T23:22:00Z</time>
      </trkpt>
      <trkpt lat="46.85382" lon="-0.82007">
        <ele>176</ele>
        <time>2022-01-26T23:22:14Z</time>
      </trkpt>
      <trkpt lat="46.85398" lon="-0.82018">
        <ele>179</ele>
        <time>2022-01-26T23:22:28Z</time>
      </trkpt>
      <trkpt lat="46.85396" lon="-0.82037">
        <ele>178</ele>
        <time>2022-01-26T23:22:38Z</time>
      </trkpt>
      <trkpt lat="46.854" lon="-0.82064">
        <ele>178</ele>
        <time>2022-01-26T23:22:53Z</time>
      </trkpt>
      <trkpt lat="46.8541" lon="-0.82091">
        <ele>179</ele>
        <time>2022-01-26T23:23:10Z</time>
      </trkpt>
      <trkpt lat="46.85423" lon="-0.82116">
        <ele>178</ele>
        <time>2022-01-26T23:23:27Z</time>
      </trkpt>
      <trkpt lat="46.85448" lon="-0.82142">
        <ele>179</ele>
        <time>2022-01-26T23:23:52Z</time>
      </trkpt>
      <trkpt lat="46.8548" lon="-0.8216">
        <ele>182</ele>
        <time>2022-01-26T23:24:19Z</time>
      </trkpt>
      <trkpt lat="46.85505" lon="-0.8216">
        <ele>185</ele>
        <time>2022-01-26T23:24:39Z</time>
      </trkpt>
      <trkpt lat="46.85528" lon="-0.82168">
        <ele>185</ele>
        <time>2022-01-26T23:24:58Z</time>
      </trkpt>
      <trkpt lat="46.85549" lon="-0.82172">
        <ele>185</ele>
        <time>2022-01-26T23:25:15Z</time>
      </trkpt>
      <trkpt lat="46.85567" lon="-0.8216">
        <ele>187</ele>
        <time>2022-01-26T23:25:31Z</time>
      </trkpt>
      <trkpt lat="46.85595" lon="-0.8217">
        <ele>186</ele>
        <time>2022-01-26T23:25:54Z</time>
      </trkpt>
      <trkpt lat="46.85618" lon="-0.82133">
        <ele>188</ele>
        <time>2022-01-26T23:26:22Z</time>
      </trkpt>
      <trkpt lat="46.85647" lon="-0.82138">
        <ele>186</ele>
        <time>2022-01-26T23:26:45Z</time>
      </trkpt>
      <trkpt lat="46.85691" lon="-0.82144">
        <ele>181</ele>
        <time>2022-01-26T23:27:20Z</time>
      </trkpt>
      <trkpt lat="46.85726" lon="-0.82151">
        <ele>176</ele>
        <time>2022-01-26T23:27:49Z</time>
      </trkpt>
      <trkpt lat="46.85756" lon="-0.82171">
        <ele>172</ele>
        <time>2022-01-26T23:28:15Z</time>
      </trkpt>
      <trkpt lat="46.85764" lon="-0.82156">
        <ele>171</ele>
        <time>2022-01-26T23:28:25Z</time>
      </trkpt>
      <trkpt lat="46.85769" lon="-0.82139">
        <ele>170</ele>
        <time>2022-01-26T23:28:36Z</time>
      </trkpt>
      <trkpt lat="46.85767" lon="-0.82112">
        <ele>170</ele>
        <time>2022-01-26T23:28:50Z</time>
      </trkpt>
      <trkpt lat="46.85732" lon="-0.82061">
        <ele>173</ele>
        <time>2022-01-26T23:29:30Z</time>
      </trkpt>
      <trkpt lat="46.85715" lon="-0.82055">
        <ele>175</ele>
        <time>2022-01-26T23:29:44Z</time>
      </trkpt>
      <trkpt lat="46.85668" lon="-0.81997">
        <ele>176</ele>
        <time>2022-01-26T23:30:33Z</time>
      </trkpt>
      <trkpt lat="46.8564" lon="-0.81968">
        <ele>179</ele>
        <time>2022-01-26T23:31:01Z</time>
      </trkpt>
      <trkpt lat="46.85625" lon="-0.81937">
        <ele>179</ele>
        <time>2022-01-26T23:31:22Z</time>
      </trkpt>
      <trkpt lat="46.85602" lon="-0.81913">
        <ele>181</ele>
        <time>2022-01-26T23:31:44Z</time>
      </trkpt>
      <trkpt lat="46.85588" lon="-0.81895">
        <ele>181</ele>
        <time>2022-01-26T23:31:59Z</time>
      </trkpt>
      <trkpt lat="46.85579" lon="-0.81869">
        <ele>177</ele>
        <time>2022-01-26T23:32:15Z</time>
      </trkpt>
      <trkpt lat="46.85564" lon="-0.81862">
        <ele>178</ele>
        <time>2022-01-26T23:32:28Z</time>
      </trkpt>
      <trkpt lat="46.85503" lon="-0.81867">
        <ele>185</ele>
        <time>2022-01-26T23:33:17Z</time>
      </trkpt>
      <trkpt lat="46.85472" lon="-0.81876">
        <ele>184</ele>
        <time>2022-01-26T23:33:42Z</time>
      </trkpt>
      <trkpt lat="46.85424" lon="-0.81867">
        <ele>180</ele>
        <time>2022-01-26T23:34:21Z</time>
      </trkpt>
      <trkpt lat="46.85407" lon="-0.81863">
        <ele>177</ele>
        <time>2022-01-26T23:34:34Z</time>
      </trkpt>
      <trkpt lat="46.85384" lon="-0.81863">
        <ele>173</ele>
        <time>2022-01-26T23:34:53Z</time>
      </trkpt>
      <trkpt lat="46.85368" lon="-0.81846">
        <ele>170</ele>
        <time>2022-01-26T23:35:09Z</time>
      </trkpt>
      <trkpt lat="46.85369" lon="-0.81812">
        <ele>167</ele>
        <time>2022-01-26T23:35:27Z</time>
      </trkpt>
      <trkpt lat="46.85366" lon="-0.81779">
        <ele>165</ele>
        <time>2022-01-26T23:35:45Z</time>
      </trkpt>
      <trkpt lat="46.85351" lon="-0.81758">
        <ele>162</ele>
        <time>2022-01-26T23:36:02Z</time>
      </trkpt>
      <trkpt lat="46.85339" lon="-0.81736">
        <ele>160</ele>
        <time>2022-01-26T23:36:18Z</time>
      </trkpt>
      <trkpt lat="46.85326" lon="-0.81719">
        <ele>159</ele>
        <time>2022-01-26T23:36:31Z</time>
      </trkpt>
      <trkpt lat="46.85311" lon="-0.8171">
        <ele>158</ele>
        <time>2022-01-26T23:36:44Z</time>
      </trkpt>
      <trkpt lat="46.85266" lon="-0.81691">
        <ele>155</ele>
        <time>2022-01-26T23:37:22Z</time>
      </trkpt>
      <trkpt lat="46.85236" lon="-0.81668">
        <ele>153</ele>
        <time>2022-01-26T23:37:49Z</time>
      </trkpt>
      <trkpt lat="46.85214" lon="-0.81639">
        <ele>152</ele>
        <time>2022-01-26T23:38:13Z</time>
      </trkpt>
      <trkpt lat="46.85186" lon="-0.816">
        <ele>150</ele>
        <time>2022-01-26T23:38:44Z</time>
      </trkpt>
      <trkpt lat="46.85173" lon="-0.81568">
        <ele>149</ele>
        <time>2022-01-26T23:39:04Z</time>
      </trkpt>
      <trkpt lat="46.85153" lon="-0.81528">
        <ele>148</ele>
        <time>2022-01-26T23:39:31Z</time>
      </trkpt>
      <trkpt lat="46.85129" lon="-0.81497">
        <ele>147</ele>
        <time>2022-01-26T23:39:57Z</time>
      </trkpt>
      <trkpt lat="46.85097" lon="-0.81475">
        <ele>146</ele>
        <time>2022-01-26T23:40:25Z</time>
      </trkpt>
      <trkpt lat="46.85062" lon="-0.81452">
        <ele>146</ele>
        <time>2022-01-26T23:40:56Z</time>
      </trkpt>
      <trkpt lat="46.85033" lon="-0.8141">
        <ele>147</ele>
        <time>2022-01-26T23:41:29Z</time>
      </trkpt>
      <trkpt lat="46.85016" lon="-0.81382">
        <ele>146</ele>
        <time>2022-01-26T23:41:49Z</time>
      </trkpt>
      <trkpt lat="46.8492" lon="-0.81441">
        <ele>149</ele>
        <time>2022-01-26T23:43:13Z</time>
      </trkpt>
      <trkpt lat="46.84896" lon="-0.8144">
        <ele>149</ele>
        <time>2022-01-26T23:43:32Z</time>
      </trkpt>
      <trkpt lat="46.84873" lon="-0.81458">
        <ele>149</ele>
        <time>2022-01-26T23:43:53Z</time>
      </trkpt>
      <trkpt lat="46.8481" lon="-0.81515">
        <ele>150</ele>
        <time>2022-01-26T23:44:52Z</time>
      </trkpt>
      <trkpt lat="46.84797" lon="-0.81541">
        <ele>151</ele>
        <time>2022-01-26T23:45:10Z</time>
      </trkpt>
      <trkpt lat="46.84725" lon="-0.81607">
        <ele>151</ele>
        <time>2022-01-26T23:46:18Z</time>
      </trkpt>
      <trkpt lat="46.84698" lon="-0.81621">
        <ele>152</ele>
        <time>2022-01-26T23:46:41Z</time>
      </trkpt>
      <trkpt lat="46.8467" lon="-0.81615">
        <ele>152</ele>
        <time>2022-01-26T23:47:03Z</time>
      </trkpt>
      <trkpt lat="46.84645" lon="-0.81607">
        <ele>152</ele>
        <time>2022-01-26T23:47:24Z</time>
      </trkpt>
      <trkpt lat="46.84632" lon="-0.81602">
        <ele>152</ele>
        <time>2022-01-26T23:47:34Z</time>
      </trkpt>
      <trkpt lat="46.84566" lon="-0.81627">
        <ele>153</ele>
        <time>2022-01-26T23:48:29Z</time>
      </trkpt>
      <trkpt lat="46.84515" lon="-0.81645">
        <ele>155</ele>
        <time>2022-01-26T23:49:11Z</time>
      </trkpt>
      <trkpt lat="46.84486" lon="-0.81656">
        <ele>155</ele>
        <time>2022-01-26T23:49:35Z</time>
      </trkpt>
      <trkpt lat="46.84437" lon="-0.81683">
        <ele>157</ele>
        <time>2022-01-26T23:50:17Z</time>
      </trkpt>
      <trkpt lat="46.84409" lon="-0.81701">
        <ele>158</ele>
        <time>2022-01-26T23:50:41Z</time>
      </trkpt>
      <trkpt lat="46.84377" lon="-0.81723">
        <ele>158</ele>
        <time>2022-01-26T23:51:10Z</time>
      </trkpt>
      <trkpt lat="46.84333" lon="-0.81748">
        <ele>158</ele>
        <time>2022-01-26T23:51:48Z</time>
      </trkpt>
      <trkpt lat="46.84298" lon="-0.81769">
        <ele>158</ele>
        <time>2022-01-26T23:52:18Z</time>
      </trkpt>
      <trkpt lat="46.84291" lon="-0.81838">
        <ele>160</ele>
        <time>2022-01-26T23:52:56Z</time>
      </trkpt>
      <trkpt lat="46.84298" lon="-0.8191">
        <ele>161</ele>
        <time>2022-01-26T23:53:36Z</time>
      </trkpt>
      <trkpt lat="46.84307" lon="-0.81963">
        <ele>161</ele>
        <time>2022-01-26T23:54:06Z</time>
      </trkpt>
      <trkpt lat="46.84317" lon="-0.82015">
        <ele>161</ele>
        <time>2022-01-26T23:54:35Z</time>
      </trkpt>
      <trkpt lat="46.84326" lon="-0.82054">
        <ele>162</ele>
        <time>2022-01-26T23:54:58Z</time>
      </trkpt>
      <trkpt lat="46.84327" lon="-0.82122">
        <ele>161</ele>
        <time>2022-01-26T23:55:35Z</time>
      </trkpt>
      <trkpt lat="46.84319" lon="-0.82233">
        <ele>158</ele>
        <time>2022-01-26T23:56:36Z</time>
      </trkpt>
      <trkpt lat="46.84307" lon="-0.82379">
        <ele>157</ele>
        <time>2022-01-26T23:57:57Z</time>
      </trkpt>
      <trkpt lat="46.84301" lon="-0.82462">
        <ele>157</ele>
        <time>2022-01-26T23:58:43Z</time>
      </trkpt>
      <trkpt lat="46.84292" lon="-0.82548">
        <ele>156</ele>
        <time>2022-01-26T23:59:30Z</time>
      </trkpt>
      <trkpt lat="46.84286" lon="-0.82613">
        <ele>156</ele>
        <time>2022-01-27T00:00:06Z</time>
      </trkpt>
      <trkpt lat="46.84283" lon="-0.82681">
        <ele>156</ele>
        <time>2022-01-27T00:00:43Z</time>
      </trkpt>
      <trkpt lat="46.84282" lon="-0.8274">
        <ele>157</ele>
        <time>2022-01-27T00:01:16Z</time>
      </trkpt>
      <trkpt lat="46.84279" lon="-0.82814">
        <ele>159</ele>
        <time>2022-01-27T00:01:56Z</time>
      </trkpt>
      <trkpt lat="46.84302" lon="-0.82844">
        <ele>160</ele>
        <time>2022-01-27T00:02:21Z</time>
      </trkpt>
      <trkpt lat="46.84321" lon="-0.82887">
        <ele>160</ele>
        <time>2022-01-27T00:02:49Z</time>
      </trkpt>
      <trkpt lat="46.8435" lon="-0.82938">
        <ele>159</ele>
        <time>2022-01-27T00:03:25Z</time>
      </trkpt>
      <trkpt lat="46.84379" lon="-0.82975">
        <ele>157</ele>
        <time>2022-01-27T00:03:56Z</time>
      </trkpt>
      <trkpt lat="46.84394" lon="-0.82998">
        <ele>155</ele>
        <time>2022-01-27T00:04:14Z</time>
      </trkpt>
    </trkseg>
  </trk>
</gpx>